sensor_id;sensor_type;location;lat;lon;timestamp;pressure;altitude;pressure_sealevel;temperature;humidity
46846;BME280;33947;46.804;134.252;2023-01-25T00:00:29;101084.81;;;-34.56;46.18
46846;BME280;33947;46.804;134.252;2023-01-25T00:04:13;101167.63;;;-34.31;47.37
46846;BME280;33947;46.804;134.252;2023-01-25T00:08:04;101327.16;;;-32.83;48.50
46846;BME280;33947;46.804;134.252;2023-01-25T00:11:39;101282.97;;;-33.03;48.01
46846;BME280;33947;46.804;134.252;2023-01-25T00:14:52;101298.91;;;-32.68;48.71
46846;BME280;33947;46.804;134.252;2023-01-25T00:18:10;101297.63;;;-31.04;48.19
46846;BME280;33947;46.804;134.252;2023-01-25T00:21:25;101327.84;;;-30.55;46.42
46846;BME280;33947;46.804;134.252;2023-01-25T00:24:31;101300.56;;;-29.97;46.51
46846;BME280;33947;46.804;134.252;2023-01-25T00:27:39;101144.91;;;-31.87;45.16
46846;BME280;33947;46.804;134.252;2023-01-25T00:30:57;101321.56;;;-30.82;46.90
46846;BME280;33947;46.804;134.252;2023-01-25T00:37:38;101253.13;;;-29.57;48.67
46846;BME280;33947;46.804;134.252;2023-01-25T00:41:09;101240.44;;;-28.98;47.44
46846;BME280;33947;46.804;134.252;2023-01-25T00:44:34;101180.53;;;-28.87;45.31
46846;BME280;33947;46.804;134.252;2023-01-25T00:48:53;101198.88;;;-28.25;45.66
46846;BME280;33947;46.804;134.252;2023-01-25T00:52:22;101236.63;;;-27.47;47.55
46846;BME280;33947;46.804;134.252;2023-01-25T00:55:51;101206.34;;;-26.86;47.38
46846;BME280;33947;46.804;134.252;2023-01-25T00:59:23;101317.94;;;-25.29;47.39
46846;BME280;33947;46.804;134.252;2023-01-25T01:03:04;101287.59;;;-25.91;44.34
46846;BME280;33947;46.804;134.252;2023-01-25T01:06:15;101199.03;;;-26.97;44.60
46846;BME280;33947;46.804;134.252;2023-01-25T01:09:28;101272.75;;;-25.16;45.79
46846;BME280;33947;46.804;134.252;2023-01-25T01:13:09;101168.41;;;-25.36;45.95
46846;BME280;33947;46.804;134.252;2023-01-25T01:17:19;101264.50;;;-24.68;43.46
46846;BME280;33947;46.804;134.252;2023-01-25T01:20:36;101297.44;;;-24.99;43.14
46846;BME280;33947;46.804;134.252;2023-01-25T01:24:03;101302.47;;;-24.72;43.18
46846;BME280;33947;46.804;134.252;2023-01-25T01:27:39;101251.63;;;-24.64;42.89
46846;BME280;33947;46.804;134.252;2023-01-25T01:31:42;101127.25;;;-23.18;43.96
46846;BME280;33947;46.804;134.252;2023-01-25T01:35:11;101119.16;;;-21.88;39.45
46846;BME280;33947;46.804;134.252;2023-01-25T01:38:19;101294.34;;;-21.53;37.59
46846;BME280;33947;46.804;134.252;2023-01-25T01:41:26;101215.13;;;-23.34;39.32
46846;BME280;33947;46.804;134.252;2023-01-25T01:44:48;101293.63;;;-21.22;40.76
46846;BME280;33947;46.804;134.252;2023-01-25T01:47:55;101271.16;;;-20.42;38.28
46846;BME280;33947;46.804;134.252;2023-01-25T01:54:58;101250.38;;;-20.39;37.46
46846;BME280;33947;46.804;134.252;2023-01-25T01:58:05;101265.50;;;-20.55;36.03
46846;BME280;33947;46.804;134.252;2023-01-25T02:01:10;101266.84;;;-21.29;37.42
46846;BME280;33947;46.804;134.252;2023-01-25T02:04:15;101280.78;;;-19.25;37.17
46846;BME280;33947;46.804;134.252;2023-01-25T02:07:34;101267.56;;;-20.44;36.69
46846;BME280;33947;46.804;134.252;2023-01-25T02:10:40;101283.25;;;-19.09;37.33
46846;BME280;33947;46.804;134.252;2023-01-25T02:13:46;101279.38;;;-19.55;35.90
46846;BME280;33947;46.804;134.252;2023-01-25T02:16:52;101264.97;;;-20.36;35.89
46846;BME280;33947;46.804;134.252;2023-01-25T02:20:06;101269.72;;;-19.91;36.76
46846;BME280;33947;46.804;134.252;2023-01-25T02:26:38;101238.38;;;-20.49;38.32
46846;BME280;33947;46.804;134.252;2023-01-25T02:29:44;101272.47;;;-20.69;37.28
46846;BME280;33947;46.804;134.252;2023-01-25T02:32:50;101242.97;;;-20.77;38.01
46846;BME280;33947;46.804;134.252;2023-01-25T02:39:31;101255.38;;;-20.16;36.63
46846;BME280;33947;46.804;134.252;2023-01-25T02:42:36;101184.53;;;-21.89;37.02
46846;BME280;33947;46.804;134.252;2023-01-25T02:45:44;101251.03;;;-22.92;37.38
46846;BME280;33947;46.804;134.252;2023-01-25T02:48:49;101238.25;;;-23.51;39.33
46846;BME280;33947;46.804;134.252;2023-01-25T02:51:54;101207.69;;;-22.75;40.67
46846;BME280;33947;46.804;134.252;2023-01-25T02:55:00;101241.59;;;-21.90;39.78
46846;BME280;33947;46.804;134.252;2023-01-25T02:58:04;101253.88;;;-22.00;39.64
46846;BME280;33947;46.804;134.252;2023-01-25T03:01:10;101231.94;;;-22.01;40.79
46846;BME280;33947;46.804;134.252;2023-01-25T03:04:15;101226.34;;;-20.75;40.75
46846;BME280;33947;46.804;134.252;2023-01-25T03:07:19;101224.22;;;-22.10;39.37
46846;BME280;33947;46.804;134.252;2023-01-25T03:10:24;101231.28;;;-21.53;39.52
46846;BME280;33947;46.804;134.252;2023-01-25T03:13:33;101219.00;;;-21.74;40.65
46846;BME280;33947;46.804;134.252;2023-01-25T03:16:39;101205.47;;;-21.67;39.95
46846;BME280;33947;46.804;134.252;2023-01-25T03:19:44;101200.34;;;-21.60;40.48
46846;BME280;33947;46.804;134.252;2023-01-25T03:22:48;101183.91;;;-21.49;39.82
46846;BME280;33947;46.804;134.252;2023-01-25T03:25:52;101200.78;;;-21.41;41.05
46846;BME280;33947;46.804;134.252;2023-01-25T03:28:57;101189.94;;;-20.77;40.14
46846;BME280;33947;46.804;134.252;2023-01-25T03:32:03;101144.34;;;-20.94;39.72
46846;BME280;33947;46.804;134.252;2023-01-25T03:35:07;101191.22;;;-21.43;39.51
46846;BME280;33947;46.804;134.252;2023-01-25T03:38:11;101192.97;;;-20.72;39.97
46846;BME280;33947;46.804;134.252;2023-01-25T03:53:54;100924.34;;;-21.87;40.80
46846;BME280;33947;46.804;134.252;2023-01-25T03:58:13;100943.09;;;-22.31;40.33
46846;BME280;33947;46.804;134.252;2023-01-25T04:02:50;100921.09;;;-22.72;39.82
46846;BME280;33947;46.804;134.252;2023-01-25T04:07:06;101096.16;;;-21.12;40.87
46846;BME280;33947;46.804;134.252;2023-01-25T04:11:18;100909.72;;;-21.82;40.70
46846;BME280;33947;46.804;134.252;2023-01-25T04:15:20;100929.25;;;-22.11;40.16
46846;BME280;33947;46.804;134.252;2023-01-25T04:19:50;100883.25;;;-22.41;41.35
46846;BME280;33947;46.804;134.252;2023-01-25T04:36:47;101090.09;;;-21.37;40.75
46846;BME280;33947;46.804;134.252;2023-01-25T04:39:54;101045.16;;;-21.49;41.01
46846;BME280;33947;46.804;134.252;2023-01-25T04:56:03;100955.44;;;-21.47;40.25
46846;BME280;33947;46.804;134.252;2023-01-25T05:10:29;101011.25;;;-21.28;38.83
46846;BME280;33947;46.804;134.252;2023-01-25T05:15:39;101098.94;;;-20.54;39.76
46846;BME280;33947;46.804;134.252;2023-01-25T05:25:45;101021.44;;;-20.21;40.43
46846;BME280;33947;46.804;134.252;2023-01-25T05:30:34;101041.81;;;-19.95;39.27
46846;BME280;33947;46.804;134.252;2023-01-25T05:35:54;101131.59;;;-19.73;39.32
46846;BME280;33947;46.804;134.252;2023-01-25T05:45:31;100804.19;;;-21.38;39.64
46846;BME280;33947;46.804;134.252;2023-01-25T05:49:15;100850.34;;;-22.03;39.16
46846;BME280;33947;46.804;134.252;2023-01-25T05:52:28;100985.84;;;-20.81;41.35
46846;BME280;33947;46.804;134.252;2023-01-25T05:56:02;101001.91;;;-20.06;40.36
46846;BME280;33947;46.804;134.252;2023-01-25T05:59:13;100946.84;;;-20.92;38.59
46846;BME280;33947;46.804;134.252;2023-01-25T06:02:19;101061.25;;;-20.84;39.50
46846;BME280;33947;46.804;134.252;2023-01-25T06:05:25;101081.31;;;-20.29;39.97
46846;BME280;33947;46.804;134.252;2023-01-25T06:08:38;101092.38;;;-19.95;40.26
46846;BME280;33947;46.804;134.252;2023-01-25T06:11:42;101050.00;;;-20.22;39.80
46846;BME280;33947;46.804;134.252;2023-01-25T06:14:52;101072.09;;;-20.03;39.86
46846;BME280;33947;46.804;134.252;2023-01-25T06:18:01;101089.28;;;-19.83;38.75
46846;BME280;33947;46.804;134.252;2023-01-25T06:21:25;101119.22;;;-19.54;40.49
46846;BME280;33947;46.804;134.252;2023-01-25T06:24:30;101133.63;;;-19.87;39.92
46846;BME280;33947;46.804;134.252;2023-01-25T06:27:36;101145.50;;;-19.95;40.02
46846;BME280;33947;46.804;134.252;2023-01-25T06:30:40;101079.66;;;-20.28;40.71
46846;BME280;33947;46.804;134.252;2023-01-25T06:33:51;101141.78;;;-19.89;40.74
46846;BME280;33947;46.804;134.252;2023-01-25T06:36:57;101127.47;;;-19.89;40.19
46846;BME280;33947;46.804;134.252;2023-01-25T06:40:09;101116.97;;;-20.10;40.27
46846;BME280;33947;46.804;134.252;2023-01-25T06:43:16;101102.47;;;-20.19;40.43
46846;BME280;33947;46.804;134.252;2023-01-25T06:46:26;101043.75;;;-20.42;40.97
46846;BME280;33947;46.804;134.252;2023-01-25T06:49:35;101044.72;;;-20.48;40.82
46846;BME280;33947;46.804;134.252;2023-01-25T06:52:39;101145.25;;;-19.80;40.59
46846;BME280;33947;46.804;134.252;2023-01-25T06:55:44;101115.91;;;-20.12;40.21
46846;BME280;33947;46.804;134.252;2023-01-25T06:58:48;101080.69;;;-20.67;39.83
46846;BME280;33947;46.804;134.252;2023-01-25T07:01:53;101120.72;;;-20.79;40.30
46846;BME280;33947;46.804;134.252;2023-01-25T07:04:58;101131.31;;;-20.90;41.22
46846;BME280;33947;46.804;134.252;2023-01-25T07:08:02;101137.81;;;-20.76;41.47
46846;BME280;33947;46.804;134.252;2023-01-25T07:11:09;101109.13;;;-20.93;41.94
46846;BME280;33947;46.804;134.252;2023-01-25T07:14:16;101105.41;;;-20.97;41.38
46846;BME280;33947;46.804;134.252;2023-01-25T07:17:22;101134.31;;;-20.86;41.18
46846;BME280;33947;46.804;134.252;2023-01-25T07:20:28;101151.03;;;-20.79;41.84
46846;BME280;33947;46.804;134.252;2023-01-25T07:23:33;101151.72;;;-20.96;41.57
46846;BME280;33947;46.804;134.252;2023-01-25T07:26:40;101147.78;;;-21.17;41.97
46846;BME280;33947;46.804;134.252;2023-01-25T07:29:54;101141.28;;;-21.15;41.96
46846;BME280;33947;46.804;134.252;2023-01-25T07:33:00;101118.69;;;-21.30;42.09
46846;BME280;33947;46.804;134.252;2023-01-25T07:36:06;101069.75;;;-21.78;42.24
46846;BME280;33947;46.804;134.252;2023-01-25T07:39:11;101096.31;;;-21.66;42.54
46846;BME280;33947;46.804;134.252;2023-01-25T07:42:17;101117.31;;;-21.81;41.69
46846;BME280;33947;46.804;134.252;2023-01-25T07:45:45;101147.69;;;-21.73;42.45
46846;BME280;33947;46.804;134.252;2023-01-25T07:48:53;101134.84;;;-21.90;42.21
46846;BME280;33947;46.804;134.252;2023-01-25T07:52:00;101027.19;;;-22.76;42.92
46846;BME280;33947;46.804;134.252;2023-01-25T07:55:28;101062.38;;;-22.61;42.53
46846;BME280;33947;46.804;134.252;2023-01-25T07:59:09;100886.63;;;-23.93;42.57
46846;BME280;33947;46.804;134.252;2023-01-25T08:02:28;101113.13;;;-22.73;42.74
46846;BME280;33947;46.804;134.252;2023-01-25T08:05:44;101088.91;;;-22.87;43.04
46846;BME280;33947;46.804;134.252;2023-01-25T08:08:53;101153.63;;;-22.40;42.10
46846;BME280;33947;46.804;134.252;2023-01-25T08:12:10;101044.56;;;-23.08;42.71
46846;BME280;33947;46.804;134.252;2023-01-25T08:15:31;101042.09;;;-23.22;42.75
46846;BME280;33947;46.804;134.252;2023-01-25T08:18:42;101075.16;;;-23.19;42.38
46846;BME280;33947;46.804;134.252;2023-01-25T08:22:00;101134.03;;;-22.95;42.81
46846;BME280;33947;46.804;134.252;2023-01-25T08:25:12;101084.09;;;-23.07;42.61
46846;BME280;33947;46.804;134.252;2023-01-25T08:28:21;101083.31;;;-23.43;42.14
46846;BME280;33947;46.804;134.252;2023-01-25T08:31:41;101147.38;;;-23.33;42.40
46846;BME280;33947;46.804;134.252;2023-01-25T08:34:52;101164.59;;;-23.94;43.05
46846;BME280;33947;46.804;134.252;2023-01-25T08:37:59;101129.06;;;-24.60;43.49
46846;BME280;33947;46.804;134.252;2023-01-25T08:41:11;101160.00;;;-24.33;44.28
46846;BME280;33947;46.804;134.252;2023-01-25T08:44:19;101130.59;;;-24.26;44.30
46846;BME280;33947;46.804;134.252;2023-01-25T08:47:26;101166.75;;;-23.90;43.73
46846;BME280;33947;46.804;134.252;2023-01-25T08:50:45;101124.75;;;-24.05;43.54
46846;BME280;33947;46.804;134.252;2023-01-25T08:53:53;101094.72;;;-24.40;43.74
46846;BME280;33947;46.804;134.252;2023-01-25T08:56:57;101112.72;;;-24.22;43.69
46846;BME280;33947;46.804;134.252;2023-01-25T09:00:02;101131.00;;;-24.23;43.71
46846;BME280;33947;46.804;134.252;2023-01-25T09:03:07;101152.06;;;-24.50;43.33
46846;BME280;33947;46.804;134.252;2023-01-25T09:06:12;101148.00;;;-24.70;44.23
46846;BME280;33947;46.804;134.252;2023-01-25T09:09:16;101159.56;;;-24.92;45.00
46846;BME280;33947;46.804;134.252;2023-01-25T09:12:20;101188.69;;;-24.80;45.12
46846;BME280;33947;46.804;134.252;2023-01-25T09:15:25;101167.66;;;-24.87;45.69
46846;BME280;33947;46.804;134.252;2023-01-25T09:18:32;101195.28;;;-24.73;45.42
46846;BME280;33947;46.804;134.252;2023-01-25T09:21:38;101211.97;;;-25.01;45.43
46846;BME280;33947;46.804;134.252;2023-01-25T09:24:43;101205.69;;;-24.77;44.96
46846;BME280;33947;46.804;134.252;2023-01-25T09:27:56;101215.38;;;-24.73;44.83
46846;BME280;33947;46.804;134.252;2023-01-25T09:31:04;101187.22;;;-25.05;44.97
46846;BME280;33947;46.804;134.252;2023-01-25T09:34:46;101194.72;;;-25.12;44.30
46846;BME280;33947;46.804;134.252;2023-01-25T09:37:50;101214.84;;;-24.78;44.89
46846;BME280;33947;46.804;134.252;2023-01-25T09:44:27;101208.63;;;-24.32;44.43
46846;BME280;33947;46.804;134.252;2023-01-25T09:51:17;101172.38;;;-24.76;43.60
46846;BME280;33947;46.804;134.252;2023-01-25T09:54:25;101226.38;;;-25.60;45.46
46846;BME280;33947;46.804;134.252;2023-01-25T09:57:36;101231.16;;;-25.49;45.59
46846;BME280;33947;46.804;134.252;2023-01-25T10:00:46;101235.75;;;-25.32;44.82
46846;BME280;33947;46.804;134.252;2023-01-25T10:03:57;101247.31;;;-25.20;45.21
46846;BME280;33947;46.804;134.252;2023-01-25T10:10:40;101251.59;;;-24.98;44.07
46846;BME280;33947;46.804;134.252;2023-01-25T10:13:46;101239.06;;;-24.98;43.86
46846;BME280;33947;46.804;134.252;2023-01-25T10:17:13;101225.63;;;-25.19;44.25
46846;BME280;33947;46.804;134.252;2023-01-25T10:24:09;101239.50;;;-25.89;44.21
46846;BME280;33947;46.804;134.252;2023-01-25T10:27:55;101234.84;;;-25.73;44.94
46846;BME280;33947;46.804;134.252;2023-01-25T10:31:15;101237.59;;;-25.84;45.61
46846;BME280;33947;46.804;134.252;2023-01-25T10:34:25;101237.59;;;-25.84;45.78
46846;BME280;33947;46.804;134.252;2023-01-25T10:37:31;101239.34;;;-25.70;44.85
46846;BME280;33947;46.804;134.252;2023-01-25T10:40:47;101233.00;;;-25.61;44.09
46846;BME280;33947;46.804;134.252;2023-01-25T10:43:53;101227.94;;;-25.48;44.08
46846;BME280;33947;46.804;134.252;2023-01-25T10:47:32;101215.69;;;-25.92;43.73
46846;BME280;33947;46.804;134.252;2023-01-25T10:53:58;101222.41;;;-26.32;45.60
46846;BME280;33947;46.804;134.252;2023-01-25T10:57:05;101201.53;;;-27.10;46.46
46846;BME280;33947;46.804;134.252;2023-01-25T11:03:41;101225.97;;;-27.33;45.62
46846;BME280;33947;46.804;134.252;2023-01-25T11:06:48;101196.06;;;-27.52;46.73
46846;BME280;33947;46.804;134.252;2023-01-25T11:09:55;101220.44;;;-26.99;46.76
46846;BME280;33947;46.804;134.252;2023-01-25T11:16:38;101242.13;;;-27.05;46.00
46846;BME280;33947;46.804;134.252;2023-01-25T11:19:43;101244.94;;;-26.84;46.05
46846;BME280;33947;46.804;134.252;2023-01-25T11:22:54;101249.16;;;-27.34;45.39
46846;BME280;33947;46.804;134.252;2023-01-25T11:26:16;101170.81;;;-28.48;46.17
46846;BME280;33947;46.804;134.252;2023-01-25T11:29:22;101248.53;;;-28.45;47.51
46846;BME280;33947;46.804;134.252;2023-01-25T11:32:28;101227.63;;;-28.03;47.52
46846;BME280;33947;46.804;134.252;2023-01-25T11:35:34;101229.50;;;-27.89;47.12
46846;BME280;33947;46.804;134.252;2023-01-25T11:46:20;101250.75;;;-27.66;45.91
46846;BME280;33947;46.804;134.252;2023-01-25T11:56:39;101279.13;;;-28.22;45.80
46846;BME280;33947;46.804;134.252;2023-01-25T12:00:07;101274.34;;;-28.45;46.60
46846;BME280;33947;46.804;134.252;2023-01-25T12:06:51;101277.53;;;-28.70;47.83
46846;BME280;33947;46.804;134.252;2023-01-25T12:10:23;101277.38;;;-28.29;46.71
46846;BME280;33947;46.804;134.252;2023-01-25T12:34:04;101290.41;;;-28.86;46.59
46846;BME280;33947;46.804;134.252;2023-01-25T12:37:18;101226.34;;;-29.17;45.74
46846;BME280;33947;46.804;134.252;2023-01-25T12:40:50;101287.00;;;-29.46;46.01
46846;BME280;33947;46.804;134.252;2023-01-25T12:47:38;101308.09;;;-30.08;48.26
46846;BME280;33947;46.804;134.252;2023-01-25T12:50:51;101301.63;;;-29.78;48.57
46846;BME280;33947;46.804;134.252;2023-01-25T12:53:57;101311.81;;;-29.82;48.62
46846;BME280;33947;46.804;134.252;2023-01-25T13:10:59;101296.41;;;-30.21;48.31
46846;BME280;33947;46.804;134.252;2023-01-25T13:14:34;101314.69;;;-30.20;49.03
46846;BME280;33947;46.804;134.252;2023-01-25T13:17:40;101322.25;;;-29.90;48.76
46846;BME280;33947;46.804;134.252;2023-01-25T13:20:48;101324.94;;;-29.77;48.78
46846;BME280;33947;46.804;134.252;2023-01-25T13:27:25;101327.59;;;-30.28;48.08
46846;BME280;33947;46.804;134.252;2023-01-25T13:30:32;101336.81;;;-30.16;48.68
46846;BME280;33947;46.804;134.252;2023-01-25T13:33:36;101313.81;;;-30.49;48.11
46846;BME280;33947;46.804;134.252;2023-01-25T13:43:01;101286.72;;;-30.42;48.35
46846;BME280;33947;46.804;134.252;2023-01-25T13:46:09;101315.66;;;-30.48;48.86
46846;BME280;33947;46.804;134.252;2023-01-25T13:49:23;101326.06;;;-30.45;49.52
46846;BME280;33947;46.804;134.252;2023-01-25T13:52:30;101328.28;;;-30.24;48.79
46846;BME280;33947;46.804;134.252;2023-01-25T13:55:40;101347.44;;;-30.17;48.39
46846;BME280;33947;46.804;134.252;2023-01-25T13:58:45;101363.06;;;-30.12;47.39
46846;BME280;33947;46.804;134.252;2023-01-25T14:01:50;101345.25;;;-31.12;47.73
46846;BME280;33947;46.804;134.252;2023-01-25T14:04:56;101350.44;;;-31.16;48.87
46846;BME280;33947;46.804;134.252;2023-01-25T14:08:01;101341.91;;;-30.62;48.54
46846;BME280;33947;46.804;134.252;2023-01-25T14:11:06;101350.69;;;-30.41;48.21
46846;BME280;33947;46.804;134.252;2023-01-25T14:14:33;101371.47;;;-30.29;47.22
46846;BME280;33947;46.804;134.252;2023-01-25T14:17:38;101380.25;;;-31.05;47.83
46846;BME280;33947;46.804;134.252;2023-01-25T14:24:41;101338.97;;;-31.22;48.52
46846;BME280;33947;46.804;134.252;2023-01-25T14:27:46;101370.50;;;-31.32;47.83
46846;BME280;33947;46.804;134.252;2023-01-25T14:30:57;101336.78;;;-31.64;48.28
46846;BME280;33947;46.804;134.252;2023-01-25T14:34:04;101377.47;;;-31.46;49.09
46846;BME280;33947;46.804;134.252;2023-01-25T14:37:20;101372.81;;;-30.94;48.77
46846;BME280;33947;46.804;134.252;2023-01-25T14:40:27;101380.66;;;-31.36;48.64
46846;BME280;33947;46.804;134.252;2023-01-25T14:43:32;101380.41;;;-31.43;49.22
46846;BME280;33947;46.804;134.252;2023-01-25T14:46:40;101390.63;;;-31.02;48.70
46846;BME280;33947;46.804;134.252;2023-01-25T14:49:45;101377.34;;;-30.80;47.96
46846;BME280;33947;46.804;134.252;2023-01-25T14:52:50;101369.78;;;-31.48;47.99
46846;BME280;33947;46.804;134.252;2023-01-25T14:55:54;101397.78;;;-31.43;48.52
46846;BME280;33947;46.804;134.252;2023-01-25T14:59:00;101387.88;;;-31.32;48.37
46846;BME280;33947;46.804;134.252;2023-01-25T15:05:37;101391.56;;;-31.74;47.28
46846;BME280;33947;46.804;134.252;2023-01-25T15:08:47;101371.94;;;-31.72;47.92
46846;BME280;33947;46.804;134.252;2023-01-25T15:12:02;101389.44;;;-31.38;47.76
46846;BME280;33947;46.804;134.252;2023-01-25T15:15:21;101404.78;;;-31.41;47.53
46846;BME280;33947;46.804;134.252;2023-01-25T15:21:48;101417.03;;;-31.81;47.63
46846;BME280;33947;46.804;134.252;2023-01-25T15:24:52;101412.41;;;-31.51;47.42
46846;BME280;33947;46.804;134.252;2023-01-25T15:28:00;101414.66;;;-32.02;47.15
46846;BME280;33947;46.804;134.252;2023-01-25T15:31:22;101318.94;;;-32.72;47.80
46846;BME280;33947;46.804;134.252;2023-01-25T15:34:28;101390.47;;;-32.53;47.66
46846;BME280;33947;46.804;134.252;2023-01-25T15:37:38;101426.09;;;-32.08;48.52
46846;BME280;33947;46.804;134.252;2023-01-25T15:40:43;101411.63;;;-31.72;48.01
46846;BME280;33947;46.804;134.252;2023-01-25T15:43:48;101436.50;;;-32.05;47.58
46846;BME280;33947;46.804;134.252;2023-01-25T15:46:52;101418.63;;;-31.75;47.82
46846;BME280;33947;46.804;134.252;2023-01-25T15:49:57;101432.50;;;-32.31;47.78
46846;BME280;33947;46.804;134.252;2023-01-25T15:53:01;101436.75;;;-32.36;47.87
46846;BME280;33947;46.804;134.252;2023-01-25T15:56:18;101441.94;;;-32.29;47.48
46846;BME280;33947;46.804;134.252;2023-01-25T15:59:23;101451.00;;;-32.24;47.14
46846;BME280;33947;46.804;134.252;2023-01-25T16:02:29;101448.94;;;-32.80;47.54
46846;BME280;33947;46.804;134.252;2023-01-25T16:05:33;101456.38;;;-32.80;49.02
46846;BME280;33947;46.804;134.252;2023-01-25T16:08:38;101429.09;;;-32.64;49.40
46846;BME280;33947;46.804;134.252;2023-01-25T16:11:45;101471.16;;;-32.43;48.09
46846;BME280;33947;46.804;134.252;2023-01-25T16:14:53;101364.09;;;-33.33;48.11
46846;BME280;33947;46.804;134.252;2023-01-25T16:17:57;101457.38;;;-32.74;47.85
46846;BME280;33947;46.804;134.252;2023-01-25T16:21:01;101465.13;;;-32.61;48.29
46846;BME280;33947;46.804;134.252;2023-01-25T16:24:06;101400.84;;;-32.76;47.98
46846;BME280;33947;46.804;134.252;2023-01-25T16:27:18;101476.84;;;-32.00;47.12
46846;BME280;33947;46.804;134.252;2023-01-25T16:30:29;101480.09;;;-31.90;45.85
46846;BME280;33947;46.804;134.252;2023-01-25T16:33:36;101490.44;;;-32.73;45.95
46846;BME280;33947;46.804;134.252;2023-01-25T16:36:41;101484.81;;;-33.36;45.97
46846;BME280;33947;46.804;134.252;2023-01-25T16:39:50;101484.56;;;-33.01;47.42
46846;BME280;33947;46.804;134.252;2023-01-25T16:42:56;101450.47;;;-33.13;47.21
46846;BME280;33947;46.804;134.252;2023-01-25T16:46:01;101478.66;;;-32.38;47.70
46846;BME280;33947;46.804;134.252;2023-01-25T16:49:06;101489.25;;;-32.00;47.58
46846;BME280;33947;46.804;134.252;2023-01-25T16:52:13;101492.38;;;-32.07;47.06
46846;BME280;33947;46.804;134.252;2023-01-25T16:55:17;101486.28;;;-32.03;46.71
46846;BME280;33947;46.804;134.252;2023-01-25T16:58:22;101493.44;;;-32.43;46.82
46846;BME280;33947;46.804;134.252;2023-01-25T17:01:26;101489.41;;;-32.64;47.01
46846;BME280;33947;46.804;134.252;2023-01-25T17:04:31;101455.84;;;-32.41;46.69
46846;BME280;33947;46.804;134.252;2023-01-25T17:07:36;101457.53;;;-33.05;47.01
46846;BME280;33947;46.804;134.252;2023-01-25T17:10:40;101482.22;;;-32.62;47.07
46846;BME280;33947;46.804;134.252;2023-01-25T17:13:53;101512.16;;;-32.40;46.97
46846;BME280;33947;46.804;134.252;2023-01-25T17:16:57;101505.47;;;-33.20;46.45
46846;BME280;33947;46.804;134.252;2023-01-25T17:20:01;101497.81;;;-33.58;46.86
46846;BME280;33947;46.804;134.252;2023-01-25T17:23:07;101484.25;;;-33.29;47.00
46846;BME280;33947;46.804;134.252;2023-01-25T17:26:12;101510.03;;;-33.70;46.98
46846;BME280;33947;46.804;134.252;2023-01-25T17:29:17;101513.53;;;-33.94;47.36
46846;BME280;33947;46.804;134.252;2023-01-25T17:32:22;101515.56;;;-33.76;47.56
46846;BME280;33947;46.804;134.252;2023-01-25T17:35:27;101498.97;;;-33.72;47.53
46846;BME280;33947;46.804;134.252;2023-01-25T17:38:31;101500.28;;;-33.74;47.78
46846;BME280;33947;46.804;134.252;2023-01-25T17:41:36;101491.66;;;-33.97;47.70
46846;BME280;33947;46.804;134.252;2023-01-25T17:44:40;101518.19;;;-33.80;47.01
46846;BME280;33947;46.804;134.252;2023-01-25T17:47:45;101502.59;;;-33.85;47.33
46846;BME280;33947;46.804;134.252;2023-01-25T17:51:01;101502.75;;;-33.74;47.54
46846;BME280;33947;46.804;134.252;2023-01-25T17:54:07;101536.97;;;-33.71;46.42
46846;BME280;33947;46.804;134.252;2023-01-25T17:57:12;101492.81;;;-33.79;46.87
46846;BME280;33947;46.804;134.252;2023-01-25T18:00:18;101525.75;;;-34.16;46.49
46846;BME280;33947;46.804;134.252;2023-01-25T18:03:23;101524.00;;;-34.26;48.10
46846;BME280;33947;46.804;134.252;2023-01-25T18:06:30;101541.41;;;-34.21;47.45
46846;BME280;33947;46.804;134.252;2023-01-25T18:09:34;101564.41;;;-33.85;47.32
46846;BME280;33947;46.804;134.252;2023-01-25T18:12:39;101541.75;;;-33.82;46.42
46846;BME280;33947;46.804;134.252;2023-01-25T18:15:43;101551.06;;;-34.07;46.42
46846;BME280;33947;46.804;134.252;2023-01-25T18:18:49;101557.28;;;-34.24;46.51
46846;BME280;33947;46.804;134.252;2023-01-25T18:21:54;101556.22;;;-33.90;47.12
46846;BME280;33947;46.804;134.252;2023-01-25T18:24:59;101555.09;;;-34.07;46.14
46846;BME280;33947;46.804;134.252;2023-01-25T18:28:04;101502.22;;;-34.14;45.91
46846;BME280;33947;46.804;134.252;2023-01-25T18:31:10;101547.28;;;-34.05;45.78
46846;BME280;33947;46.804;134.252;2023-01-25T18:34:15;101501.84;;;-34.52;45.40
46846;BME280;33947;46.804;134.252;2023-01-25T18:37:30;101483.97;;;-34.86;45.75
46846;BME280;33947;46.804;134.252;2023-01-25T18:40:42;101527.44;;;-34.36;46.23
46846;BME280;33947;46.804;134.252;2023-01-25T18:43:54;101543.06;;;-34.00;45.71
46846;BME280;33947;46.804;134.252;2023-01-25T18:46:59;101543.97;;;-34.40;45.12
46846;BME280;33947;46.804;134.252;2023-01-25T18:50:05;101579.09;;;-34.73;45.30
46846;BME280;33947;46.804;134.252;2023-01-25T18:53:12;101533.94;;;-35.12;45.47
46846;BME280;33947;46.804;134.252;2023-01-25T18:56:23;101563.13;;;-35.10;45.25
46846;BME280;33947;46.804;134.252;2023-01-25T18:59:32;101567.03;;;-35.16;46.42
46846;BME280;33947;46.804;134.252;2023-01-25T19:02:37;101572.91;;;-35.16;46.74
46846;BME280;33947;46.804;134.252;2023-01-25T19:05:41;101549.41;;;-35.13;46.80
46846;BME280;33947;46.804;134.252;2023-01-25T19:08:46;101582.22;;;-34.74;47.19
46846;BME280;33947;46.804;134.252;2023-01-25T19:11:56;101556.38;;;-34.50;46.95